createdAt,value
2023-06-07T00:00:28.117Z,101659.69
2023-06-07T00:03:00.643Z,101666.81
2023-06-07T00:05:32.937Z,101659.69
2023-06-07T00:08:05.410Z,101650.78
2023-06-07T00:10:38.201Z,101662.44
2023-06-07T00:13:11.612Z,101666.91
2023-06-07T00:15:43.766Z,101664.25
2023-06-07T00:18:16.564Z,101650.03
2023-06-07T00:20:50.476Z,101649.16
2023-06-07T00:23:23.033Z,101656.31
2023-06-07T00:25:55.220Z,101655.44
2023-06-07T00:28:29.415Z,101651.94
2023-06-07T00:31:01.846Z,101666.28
2023-06-07T00:33:35.362Z,101658.31
2023-06-07T00:36:07.650Z,101661.91
2023-06-07T00:38:39.719Z,101653.06
2023-06-07T00:41:11.853Z,101656.66
2023-06-07T00:43:45.979Z,101651.28
2023-06-07T00:46:21.571Z,101652.19
2023-06-07T00:48:53.820Z,101650.44
2023-06-07T00:51:28.663Z,101656.66
2023-06-07T00:54:04.137Z,101654.94
2023-06-07T00:56:36.853Z,101649.56
2023-06-07T00:59:10.072Z,101651.28
2023-06-07T01:01:45.565Z,101645.13
2023-06-07T01:04:19.318Z,101646.06
2023-06-07T01:06:54.251Z,101649.69
2023-06-07T01:09:26.480Z,101650.53
2023-06-07T01:11:58.852Z,101649.69
2023-06-07T01:14:32.318Z,101644.31
2023-06-07T01:17:05.413Z,101649.69
2023-06-07T01:19:38.390Z,101642.56
2023-06-07T01:22:11.715Z,101637.25
2023-06-07T01:24:44.263Z,101640.00
2023-06-07T01:27:16.759Z,101636.47
2023-06-07T01:29:50.145Z,101639.19
2023-06-07T01:32:24.712Z,101636.50
2023-06-07T01:34:58.181Z,101644.53
2023-06-07T01:37:31.453Z,101639.19
2023-06-07T01:40:05.745Z,101637.44
2023-06-07T01:42:38.951Z,101642.94
2023-06-07T01:45:11.431Z,101638.50
2023-06-07T01:47:43.953Z,101634.06
2023-06-07T01:50:21.409Z,101639.41
2023-06-07T01:52:55.536Z,101628.75
2023-06-07T01:55:28.880Z,101624.34
2023-06-07T01:58:04.012Z,101631.50
2023-06-07T02:00:41.313Z,101631.56
2023-06-07T02:03:19.535Z,101637.84
2023-06-07T02:05:54.177Z,101623.63
2023-06-07T02:08:39.252Z,101622.72
2023-06-07T02:11:14.480Z,101619.19
2023-06-07T02:13:46.809Z,101634.38
2023-06-07T02:16:33.909Z,101637.97
2023-06-07T02:19:11.136Z,101628.19
2023-06-07T02:21:55.486Z,101628.19
2023-06-07T02:24:28.504Z,101622.84
2023-06-07T02:27:01.604Z,101616.66
2023-06-07T02:29:33.742Z,101625.66
2023-06-07T02:32:06.257Z,101616.66
2023-06-07T02:34:38.488Z,101609.59
2023-06-07T02:37:11.477Z,101606.97
2023-06-07T02:39:43.645Z,101603.41
2023-06-07T02:42:15.748Z,101606.06
2023-06-07T02:44:47.954Z,101608.75
2023-06-07T02:47:20.071Z,101607.84
2023-06-07T02:49:52.381Z,101607.84
2023-06-07T02:52:26.493Z,101596.25
2023-06-07T02:54:59.298Z,101606.06
2023-06-07T02:57:31.840Z,101600.72
2023-06-07T03:00:10.230Z,101601.63
2023-06-07T03:02:52.262Z,101595.41
2023-06-07T03:05:27.573Z,101595.41
2023-06-07T03:08:03.813Z,101593.69
2023-06-07T03:10:37.639Z,101590.13
2023-06-07T03:13:13.148Z,101591.94
2023-06-07T03:15:50.110Z,101591.06
2023-06-07T03:18:24.459Z,101603.59
2023-06-07T03:21:02.607Z,101602.75
2023-06-07T03:23:35.623Z,101609.91
2023-06-07T03:26:08.692Z,101607.28
2023-06-07T03:28:41.021Z,101604.66
2023-06-07T03:31:14.073Z,101598.41
2023-06-07T03:33:55.497Z,101604.66
2023-06-07T03:36:30.192Z,101599.31
2023-06-07T03:39:04.127Z,101605.69
2023-06-07T03:41:37.412Z,101599.44
2023-06-07T03:44:12.819Z,101603.06
2023-06-07T03:46:45.114Z,101600.44
2023-06-07T03:49:17.785Z,101603.16
2023-06-07T03:51:52.136Z,101595.19
2023-06-07T03:54:24.340Z,101601.41
2023-06-07T03:56:58.713Z,101594.28
2023-06-07T03:59:31.526Z,101595.25
2023-06-07T04:02:05.703Z,101593.44
2023-06-07T04:04:39.100Z,101593.44
2023-06-07T04:07:11.597Z,101585.44
2023-06-07T04:09:44.285Z,101585.44
2023-06-07T04:12:20.151Z,101583.72
2023-06-07T04:14:52.945Z,101576.63
2023-06-07T04:17:25.327Z,101592.69
2023-06-07T04:19:57.989Z,101596.22
2023-06-07T04:22:31.799Z,101596.25
2023-06-07T04:25:05.623Z,101593.59
2023-06-07T04:27:39.419Z,101592.78
2023-06-07T04:30:17.002Z,101591.03
2023-06-07T04:32:50.530Z,101595.50
2023-06-07T04:35:24.444Z,101599.94
2023-06-07T04:37:57.293Z,101598.19
2023-06-07T04:40:31.057Z,101589.28
2023-06-07T04:43:06.519Z,101590.16
2023-06-07T04:45:42.460Z,101590.16
2023-06-07T04:48:16.860Z,101594.66
2023-06-07T04:50:50.401Z,101600.00
2023-06-07T04:53:22.690Z,101599.13
2023-06-07T04:55:57.440Z,101596.50
2023-06-07T04:58:29.570Z,101600.09
2023-06-07T05:01:01.854Z,101598.34
2023-06-07T05:03:39.123Z,101598.34
2023-06-07T05:06:12.540Z,101595.72
2023-06-07T05:08:46.384Z,101602.81
2023-06-07T05:11:18.846Z,101594.75
2023-06-07T05:13:51.612Z,101597.44
2023-06-07T05:16:26.117Z,101600.97
2023-06-07T05:19:02.031Z,101598.25
2023-06-07T05:21:37.112Z,101598.25
2023-06-07T05:24:10.604Z,101592.03
2023-06-07T05:26:42.930Z,101596.47
2023-06-07T05:29:15.096Z,101593.84
2023-06-07T05:31:47.982Z,101591.16
2023-06-07T05:34:21.308Z,101594.75
2023-06-07T05:36:53.663Z,101596.56
2023-06-07T05:39:25.783Z,101600.09
2023-06-07T05:41:57.902Z,101601.03
2023-06-07T05:44:30.332Z,101603.69
2023-06-07T05:47:03.286Z,101602.81
2023-06-07T05:49:36.739Z,101601.97
2023-06-07T05:52:10.214Z,101601.97
2023-06-07T05:54:55.336Z,101611.72
2023-06-07T05:57:27.618Z,101607.31
2023-06-07T05:59:59.924Z,101619.75
2023-06-07T06:02:32.222Z,101609.09
2023-06-07T06:05:06.043Z,101610.91
2023-06-07T06:07:38.305Z,101609.16
2023-06-07T06:10:12.360Z,101610.97
2023-06-07T06:12:44.518Z,101613.63
2023-06-07T06:15:16.980Z,101602.06
2023-06-07T06:17:52.330Z,101609.16
2023-06-07T06:20:24.661Z,101610.09
2023-06-07T06:22:56.812Z,101610.03
2023-06-07T06:25:29.847Z,101604.66
2023-06-07T06:28:02.161Z,101614.41
2023-06-07T06:30:36.063Z,101614.34
2023-06-07T06:33:09.038Z,101617.91
2023-06-07T06:35:41.997Z,101622.31
2023-06-07T06:38:14.405Z,101620.53
2023-06-07T06:40:46.640Z,101624.88
2023-06-07T06:43:18.869Z,101621.28
2023-06-07T06:45:54.743Z,101623.91
2023-06-07T06:48:27.067Z,101618.50
2023-06-07T06:50:59.650Z,101628.28
2023-06-07T06:53:31.925Z,101628.22
2023-06-07T06:56:04.645Z,101628.16
2023-06-07T06:58:36.868Z,101628.97
2023-06-07T07:01:09.281Z,101637.00
2023-06-07T07:03:41.711Z,101645.88
2023-06-07T07:06:14.080Z,101639.53
2023-06-07T07:08:46.457Z,101638.56
2023-06-07T07:11:18.607Z,101642.91
2023-06-07T07:13:51.575Z,101638.44
2023-06-07T07:16:23.823Z,101640.16
2023-06-07T07:18:56.223Z,101640.16
2023-06-07T07:21:28.891Z,101640.22
2023-06-07T07:24:01.899Z,101642.91
2023-06-07T07:26:34.267Z,101633.16
2023-06-07T07:29:07.882Z,101642.03
2023-06-07T07:31:40.367Z,101648.25
2023-06-07T07:34:13.393Z,101649.16
2023-06-07T07:36:45.949Z,101649.16
2023-06-07T07:39:19.234Z,101645.53
2023-06-07T07:41:51.639Z,101658.00
2023-06-07T07:44:23.864Z,101651.78
2023-06-07T07:46:57.519Z,101651.78
2023-06-07T07:49:29.834Z,101652.63
2023-06-07T07:52:03.883Z,101649.97
2023-06-07T07:54:36.422Z,101647.28
2023-06-07T07:57:09.270Z,101649.00
2023-06-07T07:59:41.580Z,101645.41
2023-06-07T08:02:13.818Z,101646.34
2023-06-07T08:04:46.596Z,101641.81
2023-06-07T08:07:19.298Z,101649.84
2023-06-07T08:09:51.424Z,101645.38
2023-06-07T08:12:25.220Z,101650.66
2023-06-07T08:14:59.984Z,101633.63
2023-06-07T08:17:37.168Z,101646.94
2023-06-07T08:20:09.934Z,101641.53
2023-06-07T08:22:46.426Z,101649.50
2023-06-07T08:25:19.304Z,101648.56
2023-06-07T08:27:52.002Z,101645.88
2023-06-07T08:30:25.079Z,101643.16
2023-06-07T08:32:57.587Z,101640.41
2023-06-07T08:35:29.912Z,101634.16
2023-06-07T08:38:03.133Z,101630.56
2023-06-07T08:40:36.780Z,101629.66
2023-06-07T08:43:12.148Z,101634.06
2023-06-07T08:45:45.260Z,101634.06
2023-06-07T08:48:17.835Z,101633.19
2023-06-07T08:50:51.672Z,101634.06
2023-06-07T08:53:28.554Z,101634.06
2023-06-07T08:56:02.160Z,101637.69
2023-06-07T08:58:35.687Z,101630.50
2023-06-07T09:01:09.580Z,101635.81
2023-06-07T09:03:41.978Z,101635.81
2023-06-07T09:06:16.195Z,101641.06
2023-06-07T09:08:48.689Z,101640.19
2023-06-07T09:11:20.939Z,101633.84
2023-06-07T09:13:56.940Z,101635.59
2023-06-07T09:16:30.267Z,101636.41
2023-06-07T09:19:02.536Z,101634.59
2023-06-07T09:21:36.552Z,101624.78
2023-06-07T09:24:08.804Z,101633.63
2023-06-07T09:26:41.938Z,101630.94
2023-06-07T09:29:14.128Z,101642.47
2023-06-07T09:31:46.788Z,101637.03
2023-06-07T09:34:20.435Z,101638.75
2023-06-07T09:37:00.205Z,101635.13
2023-06-07T09:39:34.056Z,101630.66
2023-06-07T09:42:18.991Z,101638.59
2023-06-07T09:44:52.648Z,101625.16
2023-06-07T09:47:25.301Z,101627.78
2023-06-07T09:50:06.602Z,101626.84
2023-06-07T09:52:39.702Z,101620.56
2023-06-07T09:55:26.610Z,101616.94
2023-06-07T09:57:58.959Z,101620.44
2023-06-07T10:00:42.790Z,101623.09
2023-06-07T10:03:15.214Z,101624.81
2023-06-07T10:05:47.774Z,101617.63
2023-06-07T10:08:20.295Z,101623.00
2023-06-07T10:10:53.819Z,101618.53
2023-06-07T10:13:26.331Z,101622.94
2023-06-07T10:15:59.029Z,101614.84
2023-06-07T10:18:31.792Z,101618.31
2023-06-07T10:21:07.563Z,101616.47
2023-06-07T10:23:45.641Z,101613.69
2023-06-07T10:26:23.660Z,101619.84
2023-06-07T10:29:05.828Z,101615.28
2023-06-07T10:31:42.146Z,101614.25
2023-06-07T10:34:16.017Z,101619.34
2023-06-07T10:36:48.294Z,101611.19
2023-06-07T10:39:20.807Z,101606.63
2023-06-07T10:41:53.557Z,101604.78
2023-06-07T10:44:26.381Z,101588.81
2023-06-07T10:47:18.687Z,101598.41
2023-06-07T10:49:52.336Z,101597.44
2023-06-07T10:52:26.040Z,101593.78
2023-06-07T10:54:58.237Z,101600.91
2023-06-07T10:57:37.618Z,101598.22
2023-06-07T11:00:31.692Z,101591.09
2023-06-07T11:03:14.360Z,101592.94
2023-06-07T11:05:57.766Z,101586.81
2023-06-07T11:08:31.676Z,101588.59
2023-06-07T11:11:04.754Z,101589.56
2023-06-07T11:13:39.984Z,101585.13
2023-06-07T11:16:24.728Z,101581.59
2023-06-07T11:18:58.424Z,101578.97
2023-06-07T11:21:31.431Z,101578.97
2023-06-07T11:24:10.284Z,101570.97
2023-06-07T11:26:42.574Z,101579.09
2023-06-07T11:29:20.689Z,101573.78
2023-06-07T11:32:00.075Z,101566.69
2023-06-07T11:34:34.560Z,101567.63
2023-06-07T11:37:11.301Z,101568.50
2023-06-07T11:39:46.585Z,101558.66
2023-06-07T11:42:18.962Z,101558.66
2023-06-07T11:44:57.402Z,101560.44
2023-06-07T11:47:30.099Z,101553.31
2023-06-07T11:50:02.742Z,101553.31
2023-06-07T11:52:41.887Z,101546.19
2023-06-07T11:55:14.513Z,101546.19
2023-06-07T11:57:56.779Z,101541.69
2023-06-07T12:00:31.285Z,101537.28
2023-06-07T12:03:04.725Z,101535.47
2023-06-07T12:05:38.644Z,101530.09
2023-06-07T12:08:14.957Z,101530.97
2023-06-07T12:10:56.669Z,101530.09
2023-06-07T12:13:32.070Z,101521.16
2023-06-07T12:16:06.829Z,101521.16
2023-06-07T12:18:41.960Z,101522.00
2023-06-07T12:21:19.610Z,101513.09
2023-06-07T12:23:54.917Z,101514.84
2023-06-07T12:26:31.628Z,101529.97
2023-06-07T12:29:04.973Z,101520.19
2023-06-07T12:31:44.768Z,101521.03
2023-06-07T12:34:17.228Z,101519.19
2023-06-07T12:36:49.838Z,101512.03
2023-06-07T12:39:30.786Z,101519.16
2023-06-07T12:42:03.305Z,101513.78
2023-06-07T12:44:36.194Z,101507.47
2023-06-07T12:47:12.493Z,101504.78
2023-06-07T12:49:45.429Z,101507.41
2023-06-07T12:56:15.496Z,101506.41
2023-06-07T12:58:48.899Z,101500.13
2023-06-07T13:01:21.243Z,101500.06
2023-06-07T13:03:53.583Z,101491.06
2023-06-07T13:06:27.133Z,101487.47
2023-06-07T13:09:02.836Z,101491.81
2023-06-07T13:11:45.681Z,101482.84
2023-06-07T13:14:18.127Z,101480.94
2023-06-07T13:16:50.410Z,101480.91
2023-06-07T13:19:22.778Z,101473.66
2023-06-07T13:22:06.419Z,101474.47
2023-06-07T13:24:38.684Z,101469.91
2023-06-07T13:27:13.510Z,101469.84
2023-06-07T13:29:45.692Z,101463.47
2023-06-07T13:32:18.967Z,101464.28
2023-06-07T13:34:51.468Z,101453.50
2023-06-07T13:37:23.790Z,101455.16
2023-06-07T13:39:56.294Z,101446.16
2023-06-07T13:42:28.655Z,101448.69
2023-06-07T13:45:01.525Z,101444.06
2023-06-07T13:47:34.388Z,101442.19
2023-06-07T13:50:07.431Z,101433.13
2023-06-07T13:52:40.044Z,101434.72
2023-06-07T13:55:13.069Z,101432.84
2023-06-07T13:57:46.454Z,101435.31
2023-06-07T14:00:19.296Z,101437.00
2023-06-07T14:02:52.174Z,101436.78
2023-06-07T14:05:25.134Z,101427.66
2023-06-07T14:08:00.609Z,101421.22
2023-06-07T14:10:33.304Z,101430.84
2023-06-07T14:13:16.248Z,101423.53
2023-06-07T14:15:49.235Z,101430.38
2023-06-07T14:18:22.658Z,101417.66
2023-06-07T14:20:55.135Z,101415.69
2023-06-07T14:23:34.229Z,101417.28
2023-06-07T14:26:07.266Z,101409.97
2023-06-07T14:28:39.428Z,101410.69
2023-06-07T14:31:14.280Z,101414.88
2023-06-07T14:33:47.535Z,101403.94
2023-06-07T14:36:20.457Z,101400.94
2023-06-07T14:38:58.357Z,101397.00
2023-06-07T14:44:51.432Z,101400.84
2023-06-07T14:47:23.925Z,101396.22
2023-06-07T14:49:56.489Z,101395.97
2023-06-07T14:52:28.670Z,101393.91
2023-06-07T14:58:07.496Z,101388.72
2023-06-07T15:00:40.561Z,101381.63
2023-06-07T15:03:13.277Z,101393.38
2023-06-07T15:05:47.329Z,101399.63
2023-06-07T15:08:22.782Z,101395.28
2023-06-07T15:10:59.301Z,101393.34
2023-06-07T15:13:33.135Z,101384.66
2023-06-07T15:16:05.997Z,101386.19
2023-06-07T15:18:39.621Z,101388.06
2023-06-07T15:21:12.213Z,101390.22
2023-06-07T15:23:49.790Z,101387.16
2023-06-07T15:26:23.618Z,101387.28
2023-06-07T15:28:59.074Z,101379.03
2023-06-07T15:31:32.360Z,101381.78
2023-06-07T15:34:05.092Z,101382.75
2023-06-07T15:36:40.436Z,101369.63
2023-06-07T15:39:13.284Z,101377.28
2023-06-07T15:41:53.932Z,101369.72
2023-06-07T15:44:26.298Z,101367.50
2023-06-07T15:47:00.376Z,101362.69
2023-06-07T15:49:32.996Z,101364.94
2023-06-07T15:52:06.417Z,101364.75
2023-06-07T15:54:38.614Z,101358.38
2023-06-07T15:57:10.762Z,101359.19
2023-06-07T15:59:44.979Z,101362.38
2023-06-07T16:02:19.649Z,101362.94
2023-06-07T16:04:51.818Z,101349.28
2023-06-07T16:07:24.150Z,101348.75
2023-06-07T16:09:56.447Z,101350.97
2023-06-07T16:12:32.950Z,101357.63
2023-06-07T16:15:35.539Z,101362.63
2023-06-07T16:18:07.843Z,101361.44
2023-06-07T16:20:41.091Z,101351.09
2023-06-07T16:23:14.324Z,101356.75
2023-06-07T16:25:46.578Z,101352.63
2023-06-07T16:28:20.754Z,101352.91
2023-06-07T16:30:53.112Z,101353.00
2023-06-07T16:33:25.629Z,101350.47
2023-06-07T16:35:57.948Z,101355.94
2023-06-07T16:38:33.888Z,101354.22
2023-06-07T16:41:07.860Z,101354.22
2023-06-07T16:43:44.619Z,101347.00
2023-06-07T16:46:16.850Z,101344.22
2023-06-07T16:48:50.533Z,101352.13
2023-06-07T16:51:24.328Z,101353.66
2023-06-07T16:53:58.513Z,101357.13
2023-06-07T16:56:31.105Z,101356.28
2023-06-07T16:59:07.733Z,101362.44
2023-06-07T17:01:40.934Z,101356.84
2023-06-07T17:04:13.376Z,101335.56
2023-06-07T17:06:46.286Z,101350.25
2023-06-07T17:09:20.586Z,101354.47
2023-06-07T17:11:52.832Z,101350.66
2023-06-07T17:14:26.226Z,101346.78
2023-06-07T17:16:58.508Z,101350.09
2023-06-07T17:19:30.666Z,101353.50
2023-06-07T17:22:03.016Z,101351.47
2023-06-07T17:24:35.644Z,101358.41
2023-06-07T17:27:08.541Z,101355.50
2023-06-07T17:29:40.984Z,101345.50
2023-06-07T17:32:13.603Z,101347.25
2023-06-07T17:34:46.177Z,101350.78
2023-06-07T17:37:21.872Z,101353.50
2023-06-07T17:39:55.190Z,101340.78
2023-06-07T17:42:27.674Z,101341.66
2023-06-07T17:45:00.741Z,101344.44
2023-06-07T17:47:46.239Z,101347.16
2023-06-07T17:50:29.258Z,101342.03
2023-06-07T17:53:05.955Z,101341.63
2023-06-07T17:55:39.632Z,101348.38
2023-06-07T17:58:12.502Z,101340.63
2023-06-07T18:00:46.659Z,101349.09
2023-06-07T18:03:21.299Z,101342.34
2023-06-07T18:05:54.045Z,101353.47
2023-06-07T18:08:29.984Z,101352.13
2023-06-07T18:11:04.540Z,101350.75
2023-06-07T18:13:37.749Z,101353.91
2023-06-07T18:16:10.165Z,101348.88
2023-06-07T18:18:42.645Z,101348.38
2023-06-07T18:21:14.978Z,101350.56
2023-06-07T18:23:47.296Z,101352.75
2023-06-07T18:26:19.860Z,101358.47
2023-06-07T18:28:52.239Z,101353.44
2023-06-07T18:31:24.701Z,101351.06
2023-06-07T18:33:57.256Z,101351.44
2023-06-07T18:36:30.311Z,101358.91
2023-06-07T18:39:04.405Z,101355.59
2023-06-07T18:41:40.654Z,101360.28
2023-06-07T18:44:17.521Z,101355.16
2023-06-07T18:46:52.652Z,101362.44
2023-06-07T18:49:27.096Z,101365.38
2023-06-07T18:52:12.069Z,101365.59
2023-06-07T18:54:53.153Z,101373.91
2023-06-07T18:57:26.042Z,101375.03
2023-06-07T19:04:13.176Z,101385.34
2023-06-07T19:06:49.581Z,101376.47
2023-06-07T19:09:26.077Z,101383.78
2023-06-07T19:12:04.541Z,101391.03
2023-06-07T19:14:37.358Z,101389.41
2023-06-07T19:17:12.271Z,101386.88
2023-06-07T19:19:44.595Z,101381.66
2023-06-07T19:22:22.697Z,101374.56
2023-06-07T19:24:55.522Z,101377.34
2023-06-07T19:27:27.649Z,101386.34
2023-06-07T19:29:59.817Z,101385.56
2023-06-07T19:32:32.295Z,101394.56
2023-06-07T19:35:05.361Z,101394.72
2023-06-07T19:37:38.068Z,101397.56
2023-06-07T19:40:11.367Z,101394.09
2023-06-07T19:42:44.867Z,101395.97
2023-06-07T19:45:17.578Z,101396.16
2023-06-07T19:47:51.373Z,101404.28
2023-06-07T19:50:23.800Z,101399.94
2023-06-07T19:52:59.137Z,101400.13
2023-06-07T19:55:32.280Z,101410.06
2023-06-07T19:58:04.448Z,101405.66
2023-06-07T20:00:36.837Z,101403.91
2023-06-07T20:07:28.855Z,101424.78
2023-06-07T20:10:05.733Z,101422.25
2023-06-07T20:12:38.374Z,101431.25
2023-06-07T20:15:11.711Z,101432.22
2023-06-07T20:17:44.590Z,101430.47
2023-06-07T20:20:18.029Z,101429.69
2023-06-07T20:22:56.225Z,101440.44
2023-06-07T20:25:54.068Z,101445.81
2023-06-07T20:28:32.883Z,101447.72
2023-06-07T20:31:06.021Z,101450.41
2023-06-07T20:33:40.896Z,101453.97
2023-06-07T20:36:13.321Z,101460.19
2023-06-07T20:38:47.184Z,101455.72
2023-06-07T20:41:19.845Z,101460.19
2023-06-07T20:43:52.112Z,101458.47
2023-06-07T20:46:24.507Z,101459.41
2023-06-07T20:48:56.755Z,101454.97
2023-06-07T20:51:38.272Z,101471.09
2023-06-07T20:54:10.517Z,101463.16
2023-06-07T20:56:42.651Z,101460.53
2023-06-07T20:59:16.006Z,101460.53
2023-06-07T21:01:53.014Z,101462.41
2023-06-07T21:04:27.377Z,101463.38
2023-06-07T21:06:59.972Z,101467.94
2023-06-07T21:12:49.269Z,101468.13
2023-06-07T21:15:21.732Z,101477.19
2023-06-07T21:17:54.226Z,101479.88
2023-06-07T21:20:56.260Z,101465.72
2023-06-07T21:23:29.413Z,101472.03
2023-06-07T21:26:21.160Z,101472.19
2023-06-07T21:29:27.434Z,101469.63
2023-06-07T21:36:25.215Z,101470.75
2023-06-07T21:39:03.973Z,101475.28
2023-06-07T21:42:41.980Z,101472.81
2023-06-07T21:45:27.687Z,101471.19
2023-06-07T21:48:18.892Z,101476.72
2023-06-07T21:50:51.937Z,101479.50
2023-06-07T21:53:24.663Z,101476.00
2023-06-07T21:55:59.093Z,101487.78
2023-06-07T22:03:24.642Z,101489.50
2023-06-07T22:10:22.256Z,101492.34
2023-06-07T22:17:12.012Z,101502.28
2023-06-07T22:27:46.551Z,101499.88
2023-06-07T22:30:42.356Z,101496.34
2023-06-07T22:44:57.202Z,101488.78
2023-06-07T23:01:23.992Z,101484.91
2023-06-07T23:15:12.592Z,101482.66
2023-06-07T23:17:46.363Z,101488.16
2023-06-07T23:20:46.785Z,101488.25
2023-06-07T23:24:05.740Z,101479.47
2023-06-07T23:26:50.389Z,101478.59
2023-06-07T23:29:27.316Z,101476.00
2023-06-07T23:32:34.624Z,101478.75
2023-06-07T23:35:31.877Z,101476.25
2023-06-07T23:39:22.122Z,101480.91
2023-06-07T23:42:23.978Z,101474.78
